Time;durP1;ratioP1;P1;durP2;ratioP2;P2;SDS_P1;SDS_P2;PMS_P1;PMS_P2;Temp;Humidity;BMP_temperature;BMP_pressure;BME280_temperature;BME280_humidity;BME280_pressure;Samples;Min_cycle;Max_cycle;Signal;HPM_P1;HPM_P2
2021/07/25 00:00:11;;;;;;;14.57;13.10;;;19.20;99.90;;;;;;5078166;28;20477;-43
2021/07/25 00:02:37;;;;;;;14.00;12.13;;;19.10;99.90;;;;;;5078560;28;20169;-43
2021/07/25 00:05:06;;;;;;;16.17;14.63;;;19.00;99.90;;;;;;5078286;28;20418;-44
2021/07/25 00:07:32;;;;;;;14.87;13.40;;;19.00;99.90;;;;;;5078463;28;20197;-42
2021/07/25 00:09:57;;;;;;;14.63;13.23;;;19.00;99.90;;;;;;5077970;28;20415;-46
2021/07/25 00:12:23;;;;;;;14.97;12.83;;;19.00;99.90;;;;;;5078225;28;20235;-43
2021/07/25 00:14:49;;;;;;;15.23;12.40;;;19.00;99.90;;;;;;5078120;28;20197;-45
2021/07/25 00:17:15;;;;;;;16.50;14.70;;;19.00;99.90;;;;;;5076346;28;20482;-43
2021/07/25 00:19:41;;;;;;;14.87;13.50;;;19.00;99.90;;;;;;5077824;28;20747;-43
2021/07/25 00:22:07;;;;;;;14.03;12.73;;;19.10;99.90;;;;;;5078159;28;20815;-43
2021/07/25 00:24:36;;;;;;;13.90;12.60;;;19.10;99.90;;;;;;5078478;28;20479;-44
2021/07/25 00:27:03;;;;;;;13.30;12.00;;;19.10;99.90;;;;;;5078279;28;20522;-43
2021/07/25 00:29:30;;;;;;;13.33;12.13;;;19.10;99.90;;;;;;5078740;28;20454;-43
2021/07/25 00:32:01;;;;;;;13.63;12.33;;;19.10;99.90;;;;;;5078333;28;20474;-43
2021/07/25 00:34:29;;;;;;;15.23;13.20;;;19.10;99.90;;;;;;5059498;28;20822;-44
2021/07/25 00:36:54;;;;;;;14.53;13.10;;;19.10;99.90;;;;;;5076247;28;20436;-45
2021/07/25 00:39:20;;;;;;;15.37;13.33;;;19.10;99.90;;;;;;5075897;28;20703;-43
2021/07/25 00:41:46;;;;;;;14.00;12.50;;;19.10;99.90;;;;;;5075986;28;20598;-43
2021/07/25 00:44:12;;;;;;;13.23;12.03;;;19.10;99.90;;;;;;5076178;28;20499;-43
2021/07/25 00:46:37;;;;;;;12.53;11.23;;;19.10;99.90;;;;;;5075996;28;20189;-44
2021/07/25 00:49:03;;;;;;;12.60;11.30;;;19.10;99.90;;;;;;5076989;28;20423;-44
2021/07/25 00:51:30;;;;;;;13.30;11.90;;;19.20;99.90;;;;;;5077646;28;20203;-43
2021/07/25 00:53:56;;;;;;;14.73;11.70;;;19.20;99.90;;;;;;5077461;28;20193;-44
2021/07/25 00:56:21;;;;;;;12.50;11.20;;;19.20;99.90;;;;;;5078076;28;20462;-43
2021/07/25 00:58:47;;;;;;;11.50;10.50;;;19.10;99.90;;;;;;5076135;28;20470;-43
2021/07/25 01:01:14;;;;;;;12.30;10.90;;;19.20;99.90;;;;;;5075454;28;20711;-45
2021/07/25 01:03:51;;;;;;;11.83;10.73;;;19.20;99.90;;;;;;5075410;28;20695;-45
2021/07/25 01:06:24;;;;;;;11.13;10.03;;;19.30;99.90;;;;;;5058607;28;20811;-44
2021/07/25 01:09:01;;;;;;;11.83;10.70;;;19.40;99.90;;;;;;5058623;28;20418;-44
2021/07/25 01:11:32;;;;;;;11.07;9.97;;;19.40;99.90;;;;;;5076407;28;20970;-47
2021/07/25 01:14:00;;;;;;;12.30;11.10;;;19.40;99.90;;;;;;5076347;28;20446;-44
2021/07/25 01:16:26;;;;;;;11.10;10.00;;;19.50;99.90;;;;;;5059894;28;20532;-47
2021/07/25 01:18:52;;;;;;;12.57;11.37;;;19.50;99.90;;;;;;5076935;28;20427;-43
2021/07/25 01:21:19;;;;;;;12.80;11.37;;;19.60;99.90;;;;;;5077190;28;20574;-43
2021/07/25 01:23:47;;;;;;;12.00;10.80;;;19.60;99.90;;;;;;5059494;28;20205;-43
2021/07/25 01:26:26;;;;;;;13.00;10.83;;;19.60;99.90;;;;;;5059957;28;20588;-43
2021/07/25 01:28:53;;;;;;;13.87;10.50;;;19.60;99.90;;;;;;5077208;28;20699;-45
2021/07/25 01:31:23;;;;;;;15.10;10.93;;;19.60;99.90;;;;;;5059084;28;20797;-43
2021/07/25 01:33:49;;;;;;;12.07;10.87;;;19.60;99.90;;;;;;5059786;28;20530;-43
2021/07/25 01:36:15;;;;;;;13.50;11.43;;;19.60;99.90;;;;;;5059470;28;20549;-44
2021/07/25 01:38:41;;;;;;;13.37;11.83;;;19.60;99.90;;;;;;5058434;28;20663;-44
2021/07/25 01:41:16;;;;;;;13.80;12.03;;;19.50;99.90;;;;;;5076022;28;20483;-44
2021/07/25 01:43:43;;;;;;;12.67;11.33;;;19.40;99.90;;;;;;5076415;28;20412;-45
2021/07/25 01:46:10;;;;;;;12.37;11.07;;;19.30;99.90;;;;;;5076554;28;20444;-45
2021/07/25 01:48:38;;;;;;;14.30;12.60;;;19.30;99.90;;;;;;5076577;28;20411;-48
2021/07/25 01:51:05;;;;;;;13.53;12.13;;;19.30;99.90;;;;;;5076213;28;20453;-43
2021/07/25 01:53:32;;;;;;;13.33;12.00;;;19.40;99.90;;;;;;5076979;28;20806;-41
2021/07/25 01:55:57;;;;;;;12.53;11.33;;;19.40;99.90;;;;;;5059255;28;20447;-42
2021/07/25 01:58:23;;;;;;;13.33;12.13;;;19.40;99.90;;;;;;5076657;28;20992;-44
2021/07/25 02:00:49;;;;;;;10.90;9.90;;;19.30;99.90;;;;;;5076869;28;20223;-42
2021/07/25 02:03:23;;;;;;;13.67;12.10;;;19.30;99.90;;;;;;5076232;28;20435;-43
2021/07/25 02:05:49;;;;;;;13.50;12.20;;;19.30;99.90;;;;;;5076627;28;20433;-43
2021/07/25 02:08:16;;;;;;;13.37;12.07;;;19.20;99.90;;;;;;5076912;28;20439;-42
2021/07/25 02:10:46;;;;;;;13.10;11.70;;;19.20;99.90;;;;;;5076730;28;20412;-45
2021/07/25 02:13:13;;;;;;;11.87;10.63;;;19.20;99.90;;;;;;5076064;28;20838;-42
2021/07/25 02:15:39;;;;;;;11.70;10.60;;;19.10;99.90;;;;;;5076160;28;20810;-44
2021/07/25 02:18:04;;;;;;;13.17;10.80;;;19.00;99.90;;;;;;5076621;28;20508;-43
2021/07/25 02:20:30;;;;;;;12.07;10.87;;;19.10;99.90;;;;;;5076772;28;20479;-43
2021/07/25 02:22:56;;;;;;;10.73;9.83;;;19.00;99.90;;;;;;5076602;28;20238;-42
2021/07/25 02:25:22;;;;;;;14.87;10.50;;;19.10;99.90;;;;;;5076464;28;20184;-43
2021/07/25 02:27:47;;;;;;;11.20;10.00;;;19.20;99.90;;;;;;5075151;28;20688;-42
2021/07/25 02:30:13;;;;;;;11.23;10.13;;;19.20;99.90;;;;;;5076108;28;20181;-43
2021/07/25 02:32:39;;;;;;;11.83;10.17;;;19.30;99.90;;;;;;5075853;28;20181;-43
2021/07/25 02:35:05;;;;;;;11.70;10.50;;;19.30;99.90;;;;;;5076725;28;20315;-43
2021/07/25 02:37:31;;;;;;;9.50;8.70;;;19.40;99.90;;;;;;5076578;28;20455;-43
2021/07/25 02:39:56;;;;;;;11.40;8.67;;;19.40;99.90;;;;;;5077957;28;20463;-45
2021/07/25 02:42:22;;;;;;;11.47;9.47;;;19.50;99.90;;;;;;5081184;28;20177;-42
2021/07/25 02:44:48;;;;;;;9.13;8.23;;;19.50;99.90;;;;;;5080590;28;20480;-43
2021/07/25 02:47:13;;;;;;;9.27;8.37;;;19.50;99.90;;;;;;5080635;28;20166;-42
2021/07/25 02:49:39;;;;;;;9.33;8.43;;;19.50;99.90;;;;;;5080842;28;20223;-43
2021/07/25 02:52:05;;;;;;;8.70;7.73;;;19.60;99.90;;;;;;5080603;28;20228;-41
2021/07/25 02:54:31;;;;;;;9.17;8.17;;;19.50;99.90;;;;;;5080125;28;20488;-42
2021/07/25 02:56:57;;;;;;;9.33;8.43;;;19.50;99.90;;;;;;5079666;28;20506;-41
2021/07/25 02:59:22;;;;;;;9.97;8.97;;;19.40;99.90;;;;;;5079687;28;20268;-42
2021/07/25 03:01:50;;;;;;;8.80;7.90;;;19.30;99.90;;;;;;5061664;28;20873;-41
2021/07/25 03:04:16;;;;;;;10.93;8.30;;;19.20;99.90;;;;;;5079444;28;20177;-43
2021/07/25 03:06:42;;;;;;;9.50;8.17;;;19.10;99.90;;;;;;5079283;28;20513;-42
2021/07/25 03:09:08;;;;;;;10.00;9.00;;;19.10;99.90;;;;;;5061554;28;20423;-42
2021/07/25 03:11:34;;;;;;;8.73;7.83;;;19.10;99.90;;;;;;5080156;28;20738;-44
2021/07/25 03:14:00;;;;;;;9.00;8.10;;;19.00;99.90;;;;;;5062574;28;20476;-42
2021/07/25 03:16:25;;;;;;;9.57;8.67;;;19.00;99.90;;;;;;5080307;28;20233;-41
2021/07/25 03:18:51;;;;;;;11.00;9.53;;;19.00;99.90;;;;;;5062958;28;20190;-42
2021/07/25 03:21:17;;;;;;;8.70;7.90;;;19.10;99.90;;;;;;5080241;28;20488;-42
2021/07/25 03:23:44;;;;;;;9.17;8.27;;;19.20;99.90;;;;;;5062509;28;20522;-41
2021/07/25 03:26:09;;;;;;;7.93;7.20;;;19.30;99.90;;;;;;5080128;28;20408;-44
2021/07/25 03:28:35;;;;;;;9.00;8.17;;;19.30;99.90;;;;;;5079983;28;20846;-43
2021/07/25 03:31:01;;;;;;;9.13;8.33;;;19.30;99.90;;;;;;5080076;28;20203;-43
2021/07/25 03:33:27;;;;;;;8.00;7.17;;;19.20;99.90;;;;;;5079683;28;20419;-41
2021/07/25 03:35:53;;;;;;;8.77;7.93;;;19.10;99.90;;;;;;5080422;28;20260;-43
2021/07/25 03:38:19;;;;;;;8.53;7.73;;;19.10;99.90;;;;;;5061903;28;20181;-42
2021/07/25 03:40:45;;;;;;;9.37;8.27;;;19.10;99.90;;;;;;5079931;28;20469;-42
2021/07/25 03:43:12;;;;;;;10.00;8.23;;;19.10;99.90;;;;;;5079828;28;20200;-43
2021/07/25 03:45:44;;;;;;;7.87;7.17;;;19.10;99.90;;;;;;5079734;28;20514;-41
2021/07/25 03:48:09;;;;;;;7.93;7.20;;;19.10;99.90;;;;;;5080121;28;20412;-44
2021/07/25 03:50:36;;;;;;;7.67;6.90;;;19.10;99.90;;;;;;5079040;28;20876;-44
2021/07/25 03:53:01;;;;;;;9.10;8.20;;;19.00;99.90;;;;;;5061190;28;20268;-44
2021/07/25 03:55:27;;;;;;;8.57;6.87;;;19.00;99.90;;;;;;5062177;28;20490;-44
2021/07/25 03:57:53;;;;;;;15.07;7.40;;;19.10;99.90;;;;;;5062125;28;20176;-42
2021/07/25 04:00:19;;;;;;;8.67;6.73;;;19.10;99.90;;;;;;5061349;28;20217;-42
2021/07/25 04:02:45;;;;;;;7.73;7.03;;;19.20;99.90;;;;;;5079725;28;20696;-44
2021/07/25 04:05:11;;;;;;;7.63;6.90;;;19.20;99.90;;;;;;5080356;28;20469;-41
2021/07/25 04:07:37;;;;;;;9.23;6.73;;;19.30;99.90;;;;;;5080386;28;20173;-41
2021/07/25 04:10:03;;;;;;;9.80;6.67;;;19.40;99.90;;;;;;5080451;28;20408;-41
2021/07/25 04:12:29;;;;;;;7.67;6.73;;;19.50;99.90;;;;;;5080021;28;20205;-41
2021/07/25 04:14:54;;;;;;;7.40;6.73;;;19.60;99.90;;;;;;5062592;28;20426;-42
2021/07/25 04:17:20;;;;;;;8.00;7.07;;;19.70;99.90;;;;;;5079727;28;20536;-41
2021/07/25 04:19:46;;;;;;;7.03;6.33;;;19.80;99.90;;;;;;5080271;28;20205;-41
2021/07/25 04:22:11;;;;;;;8.20;6.23;;;19.90;99.90;;;;;;5080373;28;20169;-41
2021/07/25 04:24:37;;;;;;;7.30;6.60;;;20.00;99.90;;;;;;5080026;28;20253;-41
2021/07/25 04:27:03;;;;;;;7.43;6.57;;;20.10;99.90;;;;;;5080011;28;20614;-41
2021/07/25 04:29:29;;;;;;;7.37;6.77;;;20.10;99.90;;;;;;5080026;28;20266;-40
2021/07/25 04:31:55;;;;;;;7.77;7.03;;;20.10;99.90;;;;;;5080106;28;20423;-41
2021/07/25 04:34:23;;;;;;;7.90;6.67;;;20.10;99.90;;;;;;5080487;28;20811;-40
2021/07/25 04:36:49;;;;;;;7.10;6.40;;;20.00;99.90;;;;;;5079645;28;20425;-41
2021/07/25 04:39:15;;;;;;;7.83;7.03;;;19.90;99.90;;;;;;5079591;28;20819;-41
2021/07/25 04:41:45;;;;;;;8.80;6.93;;;20.00;99.90;;;;;;5080662;28;20786;-40
2021/07/25 04:44:18;;;;;;;7.53;6.83;;;20.00;99.90;;;;;;5079606;28;20699;-41
2021/07/25 04:46:50;;;;;;;7.77;6.97;;;20.10;99.90;;;;;;5079935;28;20484;-42
2021/07/25 04:49:16;;;;;;;8.03;7.23;;;20.20;99.90;;;;;;5079966;28;20415;-41
2021/07/25 04:51:44;;;;;;;8.60;7.90;;;20.30;99.90;;;;;;5079856;28;20423;-41
2021/07/25 04:54:20;;;;;;;8.13;6.57;;;20.30;99.90;;;;;;5079960;28;20419;-42
2021/07/25 04:56:57;;;;;;;7.87;7.07;;;20.30;99.90;;;;;;5079436;28;20577;-41
2021/07/25 04:59:50;;;;;;;6.60;6.10;;;20.30;99.90;;;;;;5079908;28;20419;-41
2021/07/25 05:02:17;;;;;;;7.40;6.70;;;20.30;99.90;;;;;;5079627;28;20415;-43
2021/07/25 05:04:43;;;;;;;7.37;6.77;;;20.30;99.90;;;;;;5079948;28;20441;-43
2021/07/25 05:07:12;;;;;;;6.77;6.07;;;20.30;99.90;;;;;;5062091;28;20431;-41
2021/07/25 05:09:39;;;;;;;9.37;6.10;;;20.40;99.90;;;;;;5078800;28;20908;-40
2021/07/25 05:12:20;;;;;;;8.70;5.77;;;20.40;99.90;;;;;;5079634;28;20507;-40
2021/07/25 05:15:17;;;;;;;6.83;6.23;;;20.40;99.90;;;;;;5062077;28;20501;-41
2021/07/25 05:18:07;;;;;;;6.27;5.67;;;20.40;99.90;;;;;;5061488;28;20459;-41
2021/07/25 05:20:43;;;;;;;6.90;6.23;;;20.30;99.90;;;;;;5078710;28;20493;-41
2021/07/25 05:23:21;;;;;;;6.47;5.87;;;20.20;99.90;;;;;;5061304;28;20475;-41
2021/07/25 05:25:52;;;;;;;5.50;5.00;;;20.10;99.90;;;;;;5078986;28;20508;-40
2021/07/25 05:28:22;;;;;;;5.77;5.27;;;20.00;99.90;;;;;;5077547;28;20415;-42
2021/07/25 05:30:55;;;;;;;6.30;5.60;;;19.80;99.90;;;;;;5077770;28;20403;-41
2021/07/25 05:33:22;;;;;;;5.80;5.30;;;19.80;99.90;;;;;;5077989;28;20423;-41
2021/07/25 05:35:48;;;;;;;5.77;5.27;;;19.80;99.90;;;;;;5078228;28;20495;-40
2021/07/25 05:38:18;;;;;;;5.90;5.40;;;19.90;99.90;;;;;;5077841;28;20804;-43
2021/07/25 05:40:44;;;;;;;5.57;5.03;;;19.90;99.90;;;;;;5077745;28;20455;-41
2021/07/25 05:43:10;;;;;;;6.63;5.73;;;20.10;99.90;;;;;;5078372;28;20407;-40
2021/07/25 05:45:36;;;;;;;5.27;4.80;;;20.20;99.90;;;;;;5078472;28;20446;-42
2021/07/25 05:48:02;;;;;;;6.93;4.90;;;20.20;99.90;;;;;;5078676;28;20827;-41
2021/07/25 05:50:28;;;;;;;5.83;5.33;;;20.30;99.90;;;;;;5078959;28;20472;-42
2021/07/25 05:52:57;;;;;;;6.53;5.77;;;20.40;99.90;;;;;;5078360;28;20422;-42
2021/07/25 05:55:29;;;;;;;6.80;5.70;;;20.60;99.90;;;;;;5078456;28;20488;-41
2021/07/25 05:57:55;;;;;;;6.00;5.40;;;20.70;99.90;;;;;;5078547;28;20407;-42
2021/07/25 06:00:21;;;;;;;5.90;5.40;;;20.90;99.90;;;;;;5078046;28;20578;-41
2021/07/25 06:02:59;;;;;;;5.87;5.47;;;21.00;99.90;;;;;;5078429;28;20404;-42
2021/07/25 06:05:31;;;;;;;5.60;5.10;;;21.30;99.90;;;;;;5078714;28;20423;-41
2021/07/25 06:07:58;;;;;;;6.00;5.50;;;21.50;99.90;;;;;;5078061;28;20905;-41
2021/07/25 06:10:25;;;;;;;5.43;4.93;;;21.80;99.90;;;;;;5060457;28;20559;-41
2021/07/25 06:12:52;;;;;;;6.17;5.63;;;22.10;99.90;;;;;;5078341;28;20419;-41
2021/07/25 06:15:18;;;;;;;7.53;6.43;;;22.30;99.30;;;;;;5076975;28;20435;-45
2021/07/25 06:17:44;;;;;;;6.23;5.73;;;22.40;99.10;;;;;;5057182;28;20471;-41
2021/07/25 06:20:11;;;;;;;5.87;5.27;;;22.50;99.10;;;;;;5058240;28;20460;-42
2021/07/25 06:22:39;;;;;;;5.63;5.13;;;22.60;99.00;;;;;;5057945;28;20440;-41
2021/07/25 06:25:05;;;;;;;5.10;4.60;;;22.80;98.80;;;;;;5058821;28;20436;-41
2021/07/25 06:27:30;;;;;;;5.43;4.93;;;23.00;98.60;;;;;;5057826;28;20447;-42
2021/07/25 06:29:56;;;;;;;5.70;5.20;;;22.70;98.40;;;;;;5058053;28;20507;-40
2021/07/25 06:32:22;;;;;;;5.10;4.60;;;22.80;98.70;;;;;;5056566;28;20193;-43
2021/07/25 06:34:48;;;;;;;6.37;4.97;;;22.80;98.20;;;;;;5057241;28;20178;-41
2021/07/25 06:37:13;;;;;;;6.00;5.50;;;22.70;98.40;;;;;;5058057;28;20428;-42
2021/07/25 06:39:39;;;;;;;6.83;5.20;;;22.30;98.60;;;;;;5057658;28;20536;-42
2021/07/25 06:42:04;;;;;;;6.03;5.53;;;22.30;99.30;;;;;;5056152;28;20477;-40
2021/07/25 06:44:30;;;;;;;6.80;5.80;;;22.40;99.60;;;;;;5057641;28;20189;-41
2021/07/25 06:46:56;;;;;;;6.43;5.83;;;22.60;99.30;;;;;;5057613;28;20236;-42
2021/07/25 06:49:22;;;;;;;6.80;6.10;;;22.60;98.70;;;;;;5057584;28;20256;-42
2021/07/25 06:51:47;;;;;;;5.27;4.77;;;22.60;99.10;;;;;;5057094;28;20198;-41
2021/07/25 06:54:14;;;;;;;5.23;4.83;;;22.60;99.50;;;;;;5057931;28;20425;-41
2021/07/25 06:56:39;;;;;;;4.63;4.23;;;22.80;98.90;;;;;;5056661;28;20190;-41
2021/07/25 06:59:05;;;;;;;5.10;4.60;;;23.20;97.70;;;;;;5057247;28;20668;-43
2021/07/25 07:01:30;;;;;;;6.00;5.40;;;23.50;97.00;;;;;;5057433;28;20220;-41
2021/07/25 07:03:56;;;;;;;4.80;4.40;;;23.60;96.80;;;;;;5056618;28;20170;-43
2021/07/25 07:06:22;;;;;;;5.47;4.73;;;23.80;96.90;;;;;;5056278;28;20192;-44
2021/07/25 07:08:48;;;;;;;5.70;5.20;;;23.90;96.60;;;;;;5055258;28;20431;-43
2021/07/25 07:11:14;;;;;;;5.17;4.70;;;24.10;96.30;;;;;;5055140;28;20193;-44
2021/07/25 07:13:39;;;;;;;5.93;4.90;;;24.30;95.80;;;;;;5055054;28;20177;-42
2021/07/25 07:16:05;;;;;;;4.93;4.50;;;24.50;95.30;;;;;;5059148;28;20470;-42
2021/07/25 07:18:31;;;;;;;7.97;5.57;;;24.60;94.50;;;;;;5074531;28;20231;-43
2021/07/25 07:20:56;;;;;;;5.57;4.90;;;24.70;94.90;;;;;;5074087;28;20208;-44
2021/07/25 07:23:24;;;;;;;5.00;4.47;;;24.90;93.80;;;;;;5056825;28;20179;-42
2021/07/25 07:25:52;;;;;;;5.63;5.13;;;24.90;93.80;;;;;;5075808;28;20193;-42
2021/07/25 07:28:20;;;;;;;5.43;4.93;;;24.90;93.70;;;;;;5080702;28;20439;-43
2021/07/25 07:30:51;;;;;;;5.30;4.60;;;24.70;93.80;;;;;;5079470;28;20421;-41
2021/07/25 07:33:18;;;;;;;5.97;5.47;;;24.30;94.30;;;;;;5079673;28;20427;-42
2021/07/25 07:35:45;;;;;;;6.40;5.13;;;24.30;94.50;;;;;;5061654;28;20737;-42
2021/07/25 07:38:12;;;;;;;5.40;4.90;;;24.20;94.50;;;;;;5079067;28;20446;-44
2021/07/25 07:40:39;;;;;;;5.73;5.20;;;24.20;94.60;;;;;;5079501;28;20454;-42
2021/07/25 07:43:06;;;;;;;4.50;4.20;;;24.20;94.40;;;;;;5079221;28;20710;-46
2021/07/25 07:45:32;;;;;;;4.90;4.40;;;24.30;94.30;;;;;;5080887;28;20403;-41
2021/07/25 07:47:57;;;;;;;5.60;5.10;;;24.50;94.30;;;;;;5081038;28;20834;-44
2021/07/25 07:50:23;;;;;;;5.17;4.67;;;24.70;94.10;;;;;;5080624;28;20438;-43
2021/07/25 07:52:50;;;;;;;6.10;5.23;;;25.10;93.80;;;;;;5081143;28;20189;-44
2021/07/25 07:55:16;;;;;;;5.50;5.00;;;25.60;92.90;;;;;;5080615;28;20450;-44
2021/07/25 07:57:42;;;;;;;5.23;4.83;;;25.70;92.40;;;;;;5078751;28;20438;-42
2021/07/25 08:00:09;;;;;;;5.27;4.87;;;26.00;92.30;;;;;;5061618;28;20556;-42
2021/07/25 08:02:35;;;;;;;5.10;4.70;;;26.20;91.50;;;;;;5078765;28;20765;-42
2021/07/25 08:05:02;;;;;;;5.43;5.03;;;26.40;91.10;;;;;;5078152;28;20492;-43
2021/07/25 08:07:28;;;;;;;6.03;5.53;;;26.40;90.90;;;;;;5060799;28;20420;-44
2021/07/25 08:09:54;;;;;;;5.27;4.77;;;26.10;90.80;;;;;;5061277;28;20496;-42
2021/07/25 08:12:20;;;;;;;6.07;5.47;;;25.60;91.30;;;;;;5076863;28;20432;-43
2021/07/25 08:14:46;;;;;;;5.17;4.73;;;25.30;91.40;;;;;;5079500;28;20435;-42
2021/07/25 08:17:11;;;;;;;6.10;5.50;;;25.10;91.60;;;;;;5078200;28;20482;-41
2021/07/25 08:19:37;;;;;;;5.50;5.00;;;24.80;92.00;;;;;;5077655;28;20204;-42
2021/07/25 08:22:05;;;;;;;5.83;5.27;;;24.50;92.50;;;;;;5077257;28;20201;-41
2021/07/25 08:24:30;;;;;;;5.83;5.33;;;24.30;92.70;;;;;;5078557;28;20186;-41
2021/07/25 08:26:56;;;;;;;5.70;5.10;;;24.20;92.80;;;;;;5078195;28;20422;-42
2021/07/25 08:29:22;;;;;;;6.10;5.50;;;24.00;93.20;;;;;;5078864;28;20239;-43
2021/07/25 08:31:48;;;;;;;5.37;4.87;;;23.80;93.90;;;;;;5078913;28;20169;-41
2021/07/25 08:34:13;;;;;;;6.13;5.53;;;23.70;94.10;;;;;;5061603;28;20831;-42
2021/07/25 08:36:39;;;;;;;5.90;5.50;;;23.50;94.90;;;;;;5079658;28;20207;-41
2021/07/25 08:39:05;;;;;;;5.77;5.37;;;23.30;95.40;;;;;;5077745;28;20394;-42
2021/07/25 08:41:40;;;;;;;6.03;5.50;;;23.20;95.80;;;;;;5077949;28;20511;-43
2021/07/25 08:44:36;;;;;;;5.97;5.47;;;23.10;95.90;;;;;;5079690;28;20861;-43
2021/07/25 08:47:02;;;;;;;5.97;5.17;;;23.00;95.90;;;;;;5079316;28;20516;-41
2021/07/25 08:49:39;;;;;;;6.10;5.60;;;22.70;96.40;;;;;;5061701;28;20885;-42
2021/07/25 08:52:05;;;;;;;6.40;5.57;;;22.60;96.40;;;;;;5060394;28;20515;-42
2021/07/25 08:54:31;;;;;;;7.20;6.60;;;22.50;96.80;;;;;;5060453;28;20430;-42
2021/07/25 08:57:00;;;;;;;7.23;6.63;;;22.40;97.30;;;;;;5079222;28;20778;-41
2021/07/25 08:59:29;;;;;;;8.27;7.47;;;22.40;97.70;;;;;;5078901;28;20414;-42
2021/07/25 09:02:00;;;;;;;6.90;6.30;;;22.40;98.30;;;;;;5060708;28;20454;-43
2021/07/25 09:04:26;;;;;;;8.33;7.40;;;22.40;98.60;;;;;;5077948;28;20822;-43
2021/07/25 09:06:52;;;;;;;7.40;6.70;;;22.40;98.60;;;;;;5077777;28;20538;-42
2021/07/25 09:09:19;;;;;;;8.60;7.70;;;22.50;98.60;;;;;;5060935;28;20215;-42
2021/07/25 09:11:49;;;;;;;8.30;7.50;;;22.70;98.60;;;;;;5078111;28;20560;-42
2021/07/25 09:14:15;;;;;;;8.23;7.53;;;22.80;98.30;;;;;;5082371;28;20463;-41
2021/07/25 09:16:41;;;;;;;7.97;7.27;;;23.00;97.80;;;;;;5077437;28;20486;-43
2021/07/25 09:19:07;;;;;;;8.13;7.43;;;23.00;98.20;;;;;;5077895;28;20469;-42
2021/07/25 09:21:45;;;;;;;7.57;6.97;;;23.00;97.60;;;;;;5078219;28;20710;-44
2021/07/25 09:24:15;;;;;;;8.87;7.97;;;23.00;97.20;;;;;;5060086;28;20449;-43
2021/07/25 09:26:50;;;;;;;8.53;7.73;;;23.00;97.20;;;;;;5077674;28;20457;-42
2021/07/25 09:29:21;;;;;;;8.37;7.57;;;22.90;97.50;;;;;;5076946;28;20422;-44
2021/07/25 09:31:47;;;;;;;7.00;6.40;;;22.80;97.80;;;;;;5078234;28;20507;-42
2021/07/25 09:34:38;;;;;;;7.63;7.00;;;22.80;98.10;;;;;;5060633;28;20867;-42
2021/07/25 09:37:12;;;;;;;7.57;6.83;;;22.80;97.80;;;;;;5077675;28;20494;-42
2021/07/25 09:39:40;;;;;;;6.67;6.17;;;23.00;97.50;;;;;;5077863;28;20454;-42
2021/07/25 09:42:07;;;;;;;7.13;6.43;;;22.90;97.00;;;;;;5078549;28;20807;-43
2021/07/25 09:44:53;;;;;;;7.13;6.47;;;22.60;97.70;;;;;;5077250;28;20549;-42
2021/07/25 09:47:37;;;;;;;6.27;5.77;;;22.30;98.60;;;;;;5078599;28;20404;-43
2021/07/25 09:50:07;;;;;;;6.70;6.20;;;22.00;99.10;;;;;;5078478;28;20549;-42
2021/07/25 09:52:38;;;;;;;7.53;6.70;;;21.80;99.80;;;;;;5060149;28;20764;-41
2021/07/25 09:55:06;;;;;;;8.50;7.70;;;21.70;99.90;;;;;;5044563;28;20502;-42
2021/07/25 09:57:32;;;;;;;7.90;7.13;;;21.60;99.90;;;;;;5077485;28;20426;-41
2021/07/25 10:00:09;;;;;;;7.13;6.43;;;21.50;99.90;;;;;;5058810;28;20486;-42
2021/07/25 10:02:45;;;;;;;7.70;6.87;;;21.40;99.90;;;;;;5076833;28;20822;-41
2021/07/25 10:05:16;;;;;;;7.50;6.80;;;21.40;99.90;;;;;;5076041;28;20442;-43
2021/07/25 10:07:43;;;;;;;7.90;7.13;;;21.40;99.90;;;;;;5076056;28;20403;-42
2021/07/25 10:10:11;;;;;;;7.07;6.47;;;21.30;99.90;;;;;;5075266;28;20466;-43
2021/07/25 10:12:38;;;;;;;7.70;7.00;;;21.20;99.90;;;;;;5059342;28;20468;-41
2021/07/25 10:15:07;;;;;;;8.20;7.50;;;21.20;99.90;;;;;;5076617;28;20431;-42
2021/07/25 10:17:34;;;;;;;8.20;7.50;;;21.10;99.90;;;;;;5076393;28;20463;-41
2021/07/25 10:20:02;;;;;;;8.20;7.40;;;21.10;99.90;;;;;;5076906;28;20475;-42
2021/07/25 10:22:30;;;;;;;7.50;6.80;;;21.10;99.90;;;;;;5076480;28;20411;-41
2021/07/25 10:24:58;;;;;;;7.20;6.50;;;21.10;99.90;;;;;;5026200;28;20446;-42
2021/07/25 10:27:24;;;;;;;8.90;8.10;;;21.30;99.90;;;;;;5076454;28;20446;-41
2021/07/25 10:29:53;;;;;;;8.93;7.50;;;21.60;99.90;;;;;;5041723;28;20452;-41
2021/07/25 10:32:19;;;;;;;8.03;7.33;;;21.70;99.90;;;;;;5059801;28;20415;-46
2021/07/25 10:34:47;;;;;;;10.60;7.40;;;21.90;99.90;;;;;;5077279;28;20715;-41
2021/07/25 10:37:13;;;;;;;7.97;7.17;;;22.00;99.90;;;;;;5076541;28;20439;-42
2021/07/25 10:39:50;;;;;;;7.93;7.13;;;22.00;99.90;;;;;;5077743;28;20427;-42
2021/07/25 10:42:24;;;;;;;11.20;7.60;;;21.90;99.90;;;;;;5077774;28;20421;-42
2021/07/25 10:44:50;;;;;;;7.93;7.23;;;21.80;99.90;;;;;;5060396;28;20442;-42
2021/07/25 10:47:29;;;;;;;8.93;8.13;;;21.70;99.90;;;;;;5077262;28;20415;-42
2021/07/25 10:50:07;;;;;;;8.83;8.03;;;21.60;99.90;;;;;;5060513;28;20435;-43
2021/07/25 10:53:00;;;;;;;9.80;8.10;;;21.60;99.90;;;;;;5077538;28;20534;-43
2021/07/25 10:55:34;;;;;;;9.40;8.50;;;21.50;99.90;;;;;;5078139;28;20403;-43
2021/07/25 10:58:03;;;;;;;9.37;8.50;;;21.50;99.90;;;;;;5077861;28;20439;-43
2021/07/25 11:00:45;;;;;;;9.63;8.73;;;21.50;99.90;;;;;;5060891;28;20770;-42
2021/07/25 11:03:33;;;;;;;9.07;8.17;;;21.40;99.90;;;;;;5064303;28;20442;-42
2021/07/25 11:06:01;;;;;;;8.53;7.73;;;21.40;99.90;;;;;;5079900;28;20864;-44
2021/07/25 11:08:43;;;;;;;8.27;7.27;;;21.50;99.90;;;;;;5079954;28;20446;-45
2021/07/25 11:11:34;;;;;;;7.70;7.10;;;21.60;99.90;;;;;;5079961;28;20426;-43
2021/07/25 11:14:00;;;;;;;9.07;8.27;;;21.70;99.90;;;;;;5081405;28;20415;-43
2021/07/25 11:16:31;;;;;;;7.87;7.17;;;21.80;99.90;;;;;;5080344;28;20471;-42
2021/07/25 11:18:59;;;;;;;10.17;9.33;;;21.90;99.90;;;;;;5081272;28;20597;-42
2021/07/25 11:21:36;;;;;;;8.80;8.00;;;21.90;99.90;;;;;;5063799;28;20561;-42
2021/07/25 11:24:23;;;;;;;10.87;9.87;;;21.90;99.90;;;;;;5081255;28;20493;-44
2021/07/25 11:26:49;;;;;;;10.20;9.17;;;22.00;99.90;;;;;;5081231;28;20454;-42
2021/07/25 11:29:39;;;;;;;10.20;9.20;;;21.80;99.90;;;;;;5063532;28;20427;-43
2021/07/25 11:32:34;;;;;;;9.20;8.30;;;21.60;99.90;;;;;;5080814;28;20545;-42
2021/07/25 11:35:05;;;;;;;11.23;9.93;;;21.50;99.90;;;;;;5080692;28;20472;-42
2021/07/25 11:37:42;;;;;;;11.80;10.60;;;21.00;99.90;;;;;;5062760;28;20730;-42
2021/07/25 11:40:09;;;;;;;9.90;8.90;;;21.10;99.90;;;;;;5079563;28;20478;-43
2021/07/25 11:42:35;;;;;;;8.70;7.90;;;21.10;99.90;;;;;;5080829;28;20400;-42
2021/07/25 11:45:04;;;;;;;7.97;7.23;;;21.20;99.90;;;;;;5080318;28;20507;-42
2021/07/25 11:47:30;;;;;;;8.47;7.57;;;21.30;99.90;;;;;;5080161;28;20423;-42
2021/07/25 11:49:56;;;;;;;8.13;7.40;;;21.40;99.90;;;;;;5078505;28;20797;-42
2021/07/25 11:52:24;;;;;;;8.40;7.70;;;21.50;99.90;;;;;;5079255;28;20208;-43
2021/07/25 11:54:51;;;;;;;8.70;7.90;;;21.50;99.90;;;;;;5079274;28;20268;-44
2021/07/25 11:57:23;;;;;;;7.30;6.70;;;21.50;99.90;;;;;;5061675;28;20813;-41
2021/07/25 11:59:58;;;;;;;8.00;7.03;;;21.50;99.90;;;;;;5078076;28;20431;-41
2021/07/25 12:02:28;;;;;;;8.60;7.47;;;21.50;99.90;;;;;;5078139;28;20418;-41
2021/07/25 12:04:57;;;;;;;8.10;7.40;;;21.50;99.90;;;;;;5078963;28;20439;-42
2021/07/25 12:07:34;;;;;;;8.30;7.53;;;21.50;99.90;;;;;;5077390;28;20837;-41
2021/07/25 12:10:00;;;;;;;7.93;7.23;;;21.50;99.90;;;;;;5077844;28;20500;-42
2021/07/25 12:12:36;;;;;;;7.50;6.80;;;21.30;99.90;;;;;;5060727;28;20469;-41
2021/07/25 12:15:03;;;;;;;7.47;6.77;;;21.10;99.90;;;;;;5079068;28;20407;-41
2021/07/25 12:18:06;;;;;;;7.37;6.77;;;21.00;99.90;;;;;;5079399;28;20490;-42
2021/07/25 12:20:36;;;;;;;6.83;6.23;;;21.20;99.90;;;;;;4996748;28;20886;-43
2021/07/25 12:23:07;;;;;;;7.10;6.50;;;21.50;99.90;;;;;;5068025;28;20459;-41
2021/07/25 12:25:51;;;;;;;8.30;7.50;;;22.00;99.90;;;;;;5078843;28;20850;-41
2021/07/25 12:28:22;;;;;;;7.23;6.53;;;22.40;99.50;;;;;;5078060;28;20834;-43
2021/07/25 12:30:49;;;;;;;6.70;6.10;;;22.80;99.00;;;;;;5078493;28;20537;-42
2021/07/25 12:33:22;;;;;;;6.73;5.47;;;23.10;98.70;;;;;;5079243;28;20431;-41
2021/07/25 12:35:48;;;;;;;7.43;6.13;;;23.40;97.80;;;;;;5079603;28;20411;-41
2021/07/25 12:38:15;;;;;;;7.73;6.40;;;23.90;96.20;;;;;;5061127;28;20865;-42
2021/07/25 12:40:50;;;;;;;6.60;6.00;;;24.30;95.70;;;;;;5083593;28;20215;-43
2021/07/25 12:43:27;;;;;;;6.13;5.63;;;24.70;95.30;;;;;;5097130;28;20487;-42
2021/07/25 12:45:54;;;;;;;6.80;6.20;;;25.00;95.10;;;;;;5090006;28;20447;-41
2021/07/25 12:48:24;;;;;;;6.13;5.53;;;25.50;94.10;;;;;;5095260;28;20426;-43
2021/07/25 12:53:56;;;;;;;6.83;5.90;;;26.60;92.50;;;;;;5079710;28;20418;-41